sensor_id;sensor_type;location;lat;lon;timestamp;P1;durP1;ratioP1;P2;durP2;ratioP2
43883;SDS011;29544;52.018;5.810;2023-03-14T00:00:34;5.33;;;1.77;;
43883;SDS011;29544;52.018;5.810;2023-03-14T00:02:59;4.50;;;1.90;;
43883;SDS011;29544;52.018;5.810;2023-03-14T00:05:25;6.17;;;1.63;;
43883;SDS011;29544;52.018;5.810;2023-03-14T00:07:51;5.60;;;2.03;;
43883;SDS011;29544;52.018;5.810;2023-03-14T00:10:16;4.03;;;1.47;;
43883;SDS011;29544;52.018;5.810;2023-03-14T00:12:42;6.20;;;1.80;;
43883;SDS011;29544;52.018;5.810;2023-03-14T00:15:08;5.57;;;2.20;;
43883;SDS011;29544;52.018;5.810;2023-03-14T00:17:34;4.57;;;1.40;;
43883;SDS011;29544;52.018;5.810;2023-03-14T00:20:01;4.28;;;1.80;;
43883;SDS011;29544;52.018;5.810;2023-03-14T00:22:33;3.92;;;1.60;;
43883;SDS011;29544;52.018;5.810;2023-03-14T00:27:25;3.55;;;1.55;;
43883;SDS011;29544;52.018;5.810;2023-03-14T00:29:50;3.90;;;1.60;;
43883;SDS011;29544;52.018;5.810;2023-03-14T00:32:16;4.17;;;1.87;;
43883;SDS011;29544;52.018;5.810;2023-03-14T00:34:41;4.63;;;1.50;;
43883;SDS011;29544;52.018;5.810;2023-03-14T00:37:07;3.80;;;1.70;;
43883;SDS011;29544;52.018;5.810;2023-03-14T00:39:32;4.20;;;1.60;;
43883;SDS011;29544;52.018;5.810;2023-03-14T00:41:58;4.10;;;1.87;;
43883;SDS011;29544;52.018;5.810;2023-03-14T00:44:24;4.37;;;1.50;;
43883;SDS011;29544;52.018;5.810;2023-03-14T00:46:49;4.43;;;1.60;;
43883;SDS011;29544;52.018;5.810;2023-03-14T00:49:15;3.73;;;1.67;;
43883;SDS011;29544;52.018;5.810;2023-03-14T00:51:41;5.32;;;1.73;;
43883;SDS011;29544;52.018;5.810;2023-03-14T00:54:06;3.43;;;1.53;;
43883;SDS011;29544;52.018;5.810;2023-03-14T00:56:32;4.00;;;2.07;;
43883;SDS011;29544;52.018;5.810;2023-03-14T00:58:57;4.67;;;1.60;;
43883;SDS011;29544;52.018;5.810;2023-03-14T01:01:23;5.10;;;1.50;;
43883;SDS011;29544;52.018;5.810;2023-03-14T01:03:52;3.27;;;1.20;;
43883;SDS011;29544;52.018;5.810;2023-03-14T01:06:20;5.88;;;1.77;;
43883;SDS011;29544;52.018;5.810;2023-03-14T01:08:48;3.92;;;1.45;;
43883;SDS011;29544;52.018;5.810;2023-03-14T01:11:18;4.10;;;1.50;;
43883;SDS011;29544;52.018;5.810;2023-03-14T01:13:45;2.75;;;1.00;;
43883;SDS011;29544;52.018;5.810;2023-03-14T01:16:11;3.97;;;1.33;;
43883;SDS011;29544;52.018;5.810;2023-03-14T01:18:38;3.85;;;1.60;;
43883;SDS011;29544;52.018;5.810;2023-03-14T01:21:16;3.95;;;1.52;;
43883;SDS011;29544;52.018;5.810;2023-03-14T01:23:47;3.90;;;1.40;;
43883;SDS011;29544;52.018;5.810;2023-03-14T01:26:14;3.28;;;1.42;;
43883;SDS011;29544;52.018;5.810;2023-03-14T01:28:41;4.30;;;1.80;;
43883;SDS011;29544;52.018;5.810;2023-03-14T01:31:08;3.63;;;1.30;;
43883;SDS011;29544;52.018;5.810;2023-03-14T01:33:35;4.82;;;1.25;;
43883;SDS011;29544;52.018;5.810;2023-03-14T01:36:00;2.13;;;0.88;;
43883;SDS011;29544;52.018;5.810;2023-03-14T01:38:29;4.10;;;1.42;;
43883;SDS011;29544;52.018;5.810;2023-03-14T01:40:57;4.00;;;1.55;;
43883;SDS011;29544;52.018;5.810;2023-03-14T01:43:22;4.25;;;1.30;;
43883;SDS011;29544;52.018;5.810;2023-03-14T01:48:38;3.23;;;1.30;;
43883;SDS011;29544;52.018;5.810;2023-03-14T01:51:16;3.10;;;1.10;;
43883;SDS011;29544;52.018;5.810;2023-03-14T01:53:47;3.67;;;1.27;;
43883;SDS011;29544;52.018;5.810;2023-03-14T01:56:15;2.83;;;1.20;;
43883;SDS011;29544;52.018;5.810;2023-03-14T01:58:44;3.25;;;1.10;;
43883;SDS011;29544;52.018;5.810;2023-03-14T02:01:12;4.20;;;1.48;;
43883;SDS011;29544;52.018;5.810;2023-03-14T02:03:52;2.83;;;1.20;;
43883;SDS011;29544;52.018;5.810;2023-03-14T02:06:21;3.15;;;1.05;;
43883;SDS011;29544;52.018;5.810;2023-03-14T02:08:50;3.60;;;1.27;;
43883;SDS011;29544;52.018;5.810;2023-03-14T02:11:16;3.22;;;0.98;;
43883;SDS011;29544;52.018;5.810;2023-03-14T02:16:09;2.67;;;1.08;;
43883;SDS011;29544;52.018;5.810;2023-03-14T02:18:35;3.60;;;1.20;;
43883;SDS011;29544;52.018;5.810;2023-03-14T02:21:05;4.32;;;1.50;;
43883;SDS011;29544;52.018;5.810;2023-03-14T02:26:23;3.95;;;1.38;;
43883;SDS011;29544;52.018;5.810;2023-03-14T02:29:03;4.22;;;1.70;;
43883;SDS011;29544;52.018;5.810;2023-03-14T02:31:29;2.87;;;1.17;;
43883;SDS011;29544;52.018;5.810;2023-03-14T02:33:54;2.70;;;1.27;;
43883;SDS011;29544;52.018;5.810;2023-03-14T02:36:21;4.32;;;1.10;;
43883;SDS011;29544;52.018;5.810;2023-03-14T02:41:25;3.05;;;1.10;;
43883;SDS011;29544;52.018;5.810;2023-03-14T02:43:51;3.23;;;1.00;;
43883;SDS011;29544;52.018;5.810;2023-03-14T02:46:18;3.00;;;1.30;;
43883;SDS011;29544;52.018;5.810;2023-03-14T02:48:47;2.10;;;1.02;;
43883;SDS011;29544;52.018;5.810;2023-03-14T02:51:20;5.03;;;1.80;;
43883;SDS011;29544;52.018;5.810;2023-03-14T02:53:46;2.88;;;1.10;;
43883;SDS011;29544;52.018;5.810;2023-03-14T02:56:12;3.70;;;1.37;;
43883;SDS011;29544;52.018;5.810;2023-03-14T02:58:37;3.40;;;1.30;;
43883;SDS011;29544;52.018;5.810;2023-03-14T03:01:03;4.03;;;1.30;;
43883;SDS011;29544;52.018;5.810;2023-03-14T03:03:29;7.85;;;1.77;;
43883;SDS011;29544;52.018;5.810;2023-03-14T03:05:55;4.03;;;1.20;;
43883;SDS011;29544;52.018;5.810;2023-03-14T03:08:22;4.35;;;1.45;;
43883;SDS011;29544;52.018;5.810;2023-03-14T03:10:49;2.22;;;0.82;;
43883;SDS011;29544;52.018;5.810;2023-03-14T03:13:15;2.75;;;0.90;;
43883;SDS011;29544;52.018;5.810;2023-03-14T03:15:41;2.45;;;1.15;;
43883;SDS011;29544;52.018;5.810;2023-03-14T03:18:07;3.20;;;1.27;;
43883;SDS011;29544;52.018;5.810;2023-03-14T03:20:33;2.43;;;1.17;;
43883;SDS011;29544;52.018;5.810;2023-03-14T03:22:58;3.10;;;1.03;;
43883;SDS011;29544;52.018;5.810;2023-03-14T03:25:24;4.80;;;1.38;;
43883;SDS011;29544;52.018;5.810;2023-03-14T03:27:50;2.90;;;1.30;;
43883;SDS011;29544;52.018;5.810;2023-03-14T03:30:16;3.07;;;1.10;;
43883;SDS011;29544;52.018;5.810;2023-03-14T03:32:42;3.20;;;1.02;;
43883;SDS011;29544;52.018;5.810;2023-03-14T03:35:08;3.72;;;1.10;;
43883;SDS011;29544;52.018;5.810;2023-03-14T03:37:34;3.97;;;1.10;;
43883;SDS011;29544;52.018;5.810;2023-03-14T03:39:59;3.13;;;1.17;;
43883;SDS011;29544;52.018;5.810;2023-03-14T03:42:26;2.85;;;1.00;;
43883;SDS011;29544;52.018;5.810;2023-03-14T03:44:52;3.05;;;1.10;;
43883;SDS011;29544;52.018;5.810;2023-03-14T03:47:17;2.63;;;1.13;;
43883;SDS011;29544;52.018;5.810;2023-03-14T03:49:43;2.43;;;1.13;;
43883;SDS011;29544;52.018;5.810;2023-03-14T03:52:08;3.77;;;1.27;;
43883;SDS011;29544;52.018;5.810;2023-03-14T03:54:34;4.80;;;1.10;;
43883;SDS011;29544;52.018;5.810;2023-03-14T03:57:00;4.18;;;1.40;;
43883;SDS011;29544;52.018;5.810;2023-03-14T03:59:25;4.03;;;1.20;;
43883;SDS011;29544;52.018;5.810;2023-03-14T04:01:51;4.17;;;1.33;;
43883;SDS011;29544;52.018;5.810;2023-03-14T04:04:16;4.03;;;1.33;;
43883;SDS011;29544;52.018;5.810;2023-03-14T04:06:42;6.23;;;1.60;;
43883;SDS011;29544;52.018;5.810;2023-03-14T04:09:11;3.97;;;1.53;;
43883;SDS011;29544;52.018;5.810;2023-03-14T04:11:37;3.85;;;1.27;;
43883;SDS011;29544;52.018;5.810;2023-03-14T04:14:03;2.73;;;1.10;;
43883;SDS011;29544;52.018;5.810;2023-03-14T04:16:29;3.10;;;1.00;;
43883;SDS011;29544;52.018;5.810;2023-03-14T04:18:56;3.38;;;1.35;;
43883;SDS011;29544;52.018;5.810;2023-03-14T04:21:23;4.82;;;1.35;;
43883;SDS011;29544;52.018;5.810;2023-03-14T04:23:48;3.25;;;0.80;;
43883;SDS011;29544;52.018;5.810;2023-03-14T04:26:14;2.33;;;1.00;;
43883;SDS011;29544;52.018;5.810;2023-03-14T04:28:40;4.28;;;1.08;;
43883;SDS011;29544;52.018;5.810;2023-03-14T04:31:14;4.27;;;1.40;;
43883;SDS011;29544;52.018;5.810;2023-03-14T04:33:41;5.90;;;1.10;;
43883;SDS011;29544;52.018;5.810;2023-03-14T04:36:07;3.90;;;1.03;;
43883;SDS011;29544;52.018;5.810;2023-03-14T04:40:59;2.60;;;1.10;;
43883;SDS011;29544;52.018;5.810;2023-03-14T04:43:25;4.00;;;1.15;;
43883;SDS011;29544;52.018;5.810;2023-03-14T04:45:53;3.75;;;1.17;;
43883;SDS011;29544;52.018;5.810;2023-03-14T04:48:19;2.65;;;1.00;;
43883;SDS011;29544;52.018;5.810;2023-03-14T04:50:45;4.68;;;1.23;;
43883;SDS011;29544;52.018;5.810;2023-03-14T04:53:12;3.90;;;1.25;;
43883;SDS011;29544;52.018;5.810;2023-03-14T04:55:38;2.95;;;1.27;;
43883;SDS011;29544;52.018;5.810;2023-03-14T04:58:03;5.97;;;1.40;;
43883;SDS011;29544;52.018;5.810;2023-03-14T05:00:29;2.80;;;1.37;;
43883;SDS011;29544;52.018;5.810;2023-03-14T05:02:54;4.13;;;1.00;;
43883;SDS011;29544;52.018;5.810;2023-03-14T05:05:20;5.77;;;1.67;;
43883;SDS011;29544;52.018;5.810;2023-03-14T05:07:45;2.70;;;1.13;;
43883;SDS011;29544;52.018;5.810;2023-03-14T05:10:11;4.67;;;1.40;;
43883;SDS011;29544;52.018;5.810;2023-03-14T05:12:36;2.27;;;1.20;;
43883;SDS011;29544;52.018;5.810;2023-03-14T05:15:02;4.67;;;1.57;;
43883;SDS011;29544;52.018;5.810;2023-03-14T05:17:29;3.80;;;1.27;;
43883;SDS011;29544;52.018;5.810;2023-03-14T05:19:55;3.40;;;1.05;;
43883;SDS011;29544;52.018;5.810;2023-03-14T05:22:20;2.70;;;1.10;;
43883;SDS011;29544;52.018;5.810;2023-03-14T05:24:46;6.07;;;1.30;;
43883;SDS011;29544;52.018;5.810;2023-03-14T05:27:11;3.37;;;1.20;;
43883;SDS011;29544;52.018;5.810;2023-03-14T05:29:38;3.63;;;1.20;;
43883;SDS011;29544;52.018;5.810;2023-03-14T05:32:03;3.70;;;1.13;;
43883;SDS011;29544;52.018;5.810;2023-03-14T05:34:29;3.53;;;1.27;;
43883;SDS011;29544;52.018;5.810;2023-03-14T05:36:54;4.20;;;1.20;;
43883;SDS011;29544;52.018;5.810;2023-03-14T05:39:21;2.60;;;1.02;;
43883;SDS011;29544;52.018;5.810;2023-03-14T05:41:46;4.72;;;1.42;;
43883;SDS011;29544;52.018;5.810;2023-03-14T05:44:12;4.43;;;1.20;;
43883;SDS011;29544;52.018;5.810;2023-03-14T05:46:37;3.13;;;1.00;;
43883;SDS011;29544;52.018;5.810;2023-03-14T05:49:03;5.10;;;1.37;;
43883;SDS011;29544;52.018;5.810;2023-03-14T05:51:28;3.60;;;1.10;;
43883;SDS011;29544;52.018;5.810;2023-03-14T05:53:54;2.63;;;0.87;;
43883;SDS011;29544;52.018;5.810;2023-03-14T05:56:19;6.67;;;1.43;;
43883;SDS011;29544;52.018;5.810;2023-03-14T05:58:45;4.30;;;1.20;;
43883;SDS011;29544;52.018;5.810;2023-03-14T06:01:10;5.63;;;1.50;;
43883;SDS011;29544;52.018;5.810;2023-03-14T06:03:36;4.03;;;1.30;;
43883;SDS011;29544;52.018;5.810;2023-03-14T06:06:01;3.33;;;1.27;;
43883;SDS011;29544;52.018;5.810;2023-03-14T06:08:27;2.37;;;1.00;;
43883;SDS011;29544;52.018;5.810;2023-03-14T06:10:53;2.55;;;1.05;;
43883;SDS011;29544;52.018;5.810;2023-03-14T06:13:19;4.43;;;1.07;;
43883;SDS011;29544;52.018;5.810;2023-03-14T06:15:45;3.50;;;1.02;;
43883;SDS011;29544;52.018;5.810;2023-03-14T06:18:11;2.50;;;0.90;;
43883;SDS011;29544;52.018;5.810;2023-03-14T06:20:37;4.93;;;1.20;;
43883;SDS011;29544;52.018;5.810;2023-03-14T06:23:06;2.67;;;0.82;;
43883;SDS011;29544;52.018;5.810;2023-03-14T06:25:33;2.90;;;1.17;;
43883;SDS011;29544;52.018;5.810;2023-03-14T06:27:59;1.70;;;0.88;;
43883;SDS011;29544;52.018;5.810;2023-03-14T06:30:24;4.97;;;1.33;;
43883;SDS011;29544;52.018;5.810;2023-03-14T06:32:50;7.03;;;1.50;;
43883;SDS011;29544;52.018;5.810;2023-03-14T06:35:16;3.50;;;1.10;;
43883;SDS011;29544;52.018;5.810;2023-03-14T06:37:41;2.20;;;1.00;;
43883;SDS011;29544;52.018;5.810;2023-03-14T06:40:08;3.88;;;1.02;;
43883;SDS011;29544;52.018;5.810;2023-03-14T06:42:35;3.85;;;1.00;;
43883;SDS011;29544;52.018;5.810;2023-03-14T06:45:00;3.43;;;1.13;;
43883;SDS011;29544;52.018;5.810;2023-03-14T06:47:26;4.03;;;1.07;;
43883;SDS011;29544;52.018;5.810;2023-03-14T06:49:51;2.77;;;1.00;;
43883;SDS011;29544;52.018;5.810;2023-03-14T06:52:17;3.37;;;1.10;;
43883;SDS011;29544;52.018;5.810;2023-03-14T06:54:42;3.00;;;1.13;;
43883;SDS011;29544;52.018;5.810;2023-03-14T06:57:08;4.03;;;1.00;;
43883;SDS011;29544;52.018;5.810;2023-03-14T06:59:33;1.67;;;0.80;;
43883;SDS011;29544;52.018;5.810;2023-03-14T07:01:59;4.23;;;1.00;;
43883;SDS011;29544;52.018;5.810;2023-03-14T07:04:24;3.53;;;1.20;;
43883;SDS011;29544;52.018;5.810;2023-03-14T07:06:50;2.20;;;1.07;;
43883;SDS011;29544;52.018;5.810;2023-03-14T07:09:16;5.80;;;1.30;;
43883;SDS011;29544;52.018;5.810;2023-03-14T07:11:44;3.00;;;1.10;;
43883;SDS011;29544;52.018;5.810;2023-03-14T07:14:09;3.93;;;1.33;;
43883;SDS011;29544;52.018;5.810;2023-03-14T07:16:35;4.90;;;1.07;;
43883;SDS011;29544;52.018;5.810;2023-03-14T07:19:01;2.17;;;0.97;;
43883;SDS011;29544;52.018;5.810;2023-03-14T07:21:27;2.90;;;1.40;;
43883;SDS011;29544;52.018;5.810;2023-03-14T07:23:53;3.27;;;1.20;;
43883;SDS011;29544;52.018;5.810;2023-03-14T07:26:18;3.77;;;1.20;;
43883;SDS011;29544;52.018;5.810;2023-03-14T07:28:44;7.37;;;1.27;;
43883;SDS011;29544;52.018;5.810;2023-03-14T07:31:09;4.30;;;1.10;;
43883;SDS011;29544;52.018;5.810;2023-03-14T07:33:35;4.37;;;1.13;;
43883;SDS011;29544;52.018;5.810;2023-03-14T07:36:01;4.47;;;1.03;;
43883;SDS011;29544;52.018;5.810;2023-03-14T07:38:27;5.10;;;1.55;;
43883;SDS011;29544;52.018;5.810;2023-03-14T07:40:59;3.33;;;0.90;;
43883;SDS011;29544;52.018;5.810;2023-03-14T07:43:25;5.22;;;1.33;;
43883;SDS011;29544;52.018;5.810;2023-03-14T07:45:51;5.85;;;1.15;;
43883;SDS011;29544;52.018;5.810;2023-03-14T07:48:17;3.27;;;1.10;;
43883;SDS011;29544;52.018;5.810;2023-03-14T07:50:42;2.27;;;0.90;;
43883;SDS011;29544;52.018;5.810;2023-03-14T07:53:08;3.00;;;0.97;;
43883;SDS011;29544;52.018;5.810;2023-03-14T07:55:33;7.13;;;1.23;;
43883;SDS011;29544;52.018;5.810;2023-03-14T07:57:59;5.73;;;1.53;;
43883;SDS011;29544;52.018;5.810;2023-03-14T08:00:25;3.93;;;1.13;;
43883;SDS011;29544;52.018;5.810;2023-03-14T08:02:50;3.03;;;1.20;;
43883;SDS011;29544;52.018;5.810;2023-03-14T08:05:16;5.43;;;1.27;;
43883;SDS011;29544;52.018;5.810;2023-03-14T08:07:42;2.87;;;0.93;;
43883;SDS011;29544;52.018;5.810;2023-03-14T08:10:07;3.10;;;1.07;;
43883;SDS011;29544;52.018;5.810;2023-03-14T08:12:34;4.15;;;1.00;;
43883;SDS011;29544;52.018;5.810;2023-03-14T08:14:59;4.23;;;1.50;;
43883;SDS011;29544;52.018;5.810;2023-03-14T08:17:25;2.23;;;0.80;;
43883;SDS011;29544;52.018;5.810;2023-03-14T08:19:51;3.65;;;1.05;;
43883;SDS011;29544;52.018;5.810;2023-03-14T08:22:16;4.93;;;1.00;;
43883;SDS011;29544;52.018;5.810;2023-03-14T08:24:42;2.47;;;0.53;;
43883;SDS011;29544;52.018;5.810;2023-03-14T08:27:07;3.23;;;1.10;;
43883;SDS011;29544;52.018;5.810;2023-03-14T08:29:33;3.13;;;1.00;;
43883;SDS011;29544;52.018;5.810;2023-03-14T08:31:58;3.43;;;0.90;;
43883;SDS011;29544;52.018;5.810;2023-03-14T08:34:24;3.50;;;0.70;;
43883;SDS011;29544;52.018;5.810;2023-03-14T08:36:49;2.07;;;0.90;;
43883;SDS011;29544;52.018;5.810;2023-03-14T08:39:15;3.23;;;0.60;;
43883;SDS011;29544;52.018;5.810;2023-03-14T08:41:40;3.00;;;0.80;;
43883;SDS011;29544;52.018;5.810;2023-03-14T08:44:08;2.00;;;0.80;;
43883;SDS011;29544;52.018;5.810;2023-03-14T08:46:34;1.98;;;0.80;;
43883;SDS011;29544;52.018;5.810;2023-03-14T08:49:00;2.53;;;0.75;;
43883;SDS011;29544;52.018;5.810;2023-03-14T08:51:25;2.67;;;0.77;;
43883;SDS011;29544;52.018;5.810;2023-03-14T08:53:51;1.27;;;0.50;;
43883;SDS011;29544;52.018;5.810;2023-03-14T08:56:16;1.90;;;0.60;;
43883;SDS011;29544;52.018;5.810;2023-03-14T08:58:42;2.53;;;1.10;;
43883;SDS011;29544;52.018;5.810;2023-03-14T09:01:09;2.58;;;0.75;;
43883;SDS011;29544;52.018;5.810;2023-03-14T09:03:35;1.40;;;0.60;;
43883;SDS011;29544;52.018;5.810;2023-03-14T09:06:05;1.92;;;0.77;;
43883;SDS011;29544;52.018;5.810;2023-03-14T09:08:32;5.15;;;0.70;;
43883;SDS011;29544;52.018;5.810;2023-03-14T09:10:58;1.47;;;0.80;;
43883;SDS011;29544;52.018;5.810;2023-03-14T09:13:24;2.00;;;0.60;;
43883;SDS011;29544;52.018;5.810;2023-03-14T09:15:50;2.83;;;1.13;;
43883;SDS011;29544;52.018;5.810;2023-03-14T09:18:17;1.80;;;0.65;;
43883;SDS011;29544;52.018;5.810;2023-03-14T09:20:42;3.17;;;0.67;;
43883;SDS011;29544;52.018;5.810;2023-03-14T09:23:08;2.23;;;0.70;;
43883;SDS011;29544;52.018;5.810;2023-03-14T09:25:33;3.07;;;0.80;;
43883;SDS011;29544;52.018;5.810;2023-03-14T09:27:59;2.83;;;0.57;;
43883;SDS011;29544;52.018;5.810;2023-03-14T09:30:24;3.00;;;0.80;;
43883;SDS011;29544;52.018;5.810;2023-03-14T09:32:50;2.87;;;0.97;;
43883;SDS011;29544;52.018;5.810;2023-03-14T09:35:15;1.53;;;0.60;;
43883;SDS011;29544;52.018;5.810;2023-03-14T09:37:41;2.20;;;0.53;;
43883;SDS011;29544;52.018;5.810;2023-03-14T09:40:09;1.13;;;0.60;;
43883;SDS011;29544;52.018;5.810;2023-03-14T09:42:41;2.25;;;0.57;;
43883;SDS011;29544;52.018;5.810;2023-03-14T09:45:12;2.47;;;0.68;;
43883;SDS011;29544;52.018;5.810;2023-03-14T09:47:42;1.75;;;0.55;;
43883;SDS011;29544;52.018;5.810;2023-03-14T09:50:12;2.95;;;0.40;;
43883;SDS011;29544;52.018;5.810;2023-03-14T09:52:39;1.88;;;0.65;;
43883;SDS011;29544;52.018;5.810;2023-03-14T09:55:21;1.55;;;0.60;;
43883;SDS011;29544;52.018;5.810;2023-03-14T09:57:54;2.25;;;0.52;;
43883;SDS011;29544;52.018;5.810;2023-03-14T10:00:25;1.65;;;0.70;;
43883;SDS011;29544;52.018;5.810;2023-03-14T10:02:54;1.63;;;0.60;;
43883;SDS011;29544;52.018;5.810;2023-03-14T10:05:22;2.05;;;0.60;;
43883;SDS011;29544;52.018;5.810;2023-03-14T10:07:49;1.80;;;0.52;;
43883;SDS011;29544;52.018;5.810;2023-03-14T10:10:24;2.13;;;0.60;;
43883;SDS011;29544;52.018;5.810;2023-03-14T10:12:57;1.85;;;0.70;;
43883;SDS011;29544;52.018;5.810;2023-03-14T10:15:25;1.73;;;0.50;;
43883;SDS011;29544;52.018;5.810;2023-03-14T10:17:54;2.00;;;0.40;;
43883;SDS011;29544;52.018;5.810;2023-03-14T10:20:27;1.70;;;0.50;;
43883;SDS011;29544;52.018;5.810;2023-03-14T10:22:57;2.67;;;0.70;;
43883;SDS011;29544;52.018;5.810;2023-03-14T10:25:25;3.65;;;0.93;;
43883;SDS011;29544;52.018;5.810;2023-03-14T10:27:52;2.05;;;0.60;;
43883;SDS011;29544;52.018;5.810;2023-03-14T10:33:09;3.92;;;0.73;;
43883;SDS011;29544;52.018;5.810;2023-03-14T10:35:36;2.63;;;0.82;;
43883;SDS011;29544;52.018;5.810;2023-03-14T10:38:02;3.10;;;0.63;;
43883;SDS011;29544;52.018;5.810;2023-03-14T10:40:33;2.00;;;0.65;;
43883;SDS011;29544;52.018;5.810;2023-03-14T10:43:03;4.22;;;0.98;;
43883;SDS011;29544;52.018;5.810;2023-03-14T10:50:39;3.25;;;1.10;;
43883;SDS011;29544;52.018;5.810;2023-03-14T10:53:16;6.88;;;1.13;;
43883;SDS011;29544;52.018;5.810;2023-03-14T10:55:43;4.97;;;1.20;;
43883;SDS011;29544;52.018;5.810;2023-03-14T10:58:26;3.70;;;0.80;;
43883;SDS011;29544;52.018;5.810;2023-03-14T11:01:02;3.03;;;1.00;;
43883;SDS011;29544;52.018;5.810;2023-03-14T11:03:36;2.75;;;0.93;;
43883;SDS011;29544;52.018;5.810;2023-03-14T11:06:28;4.55;;;1.33;;
43883;SDS011;29544;52.018;5.810;2023-03-14T11:11:37;4.55;;;1.33;;
43883;SDS011;29544;52.018;5.810;2023-03-14T11:14:10;3.40;;;0.63;;
43883;SDS011;29544;52.018;5.810;2023-03-14T11:19:49;5.40;;;1.30;;
43883;SDS011;29544;52.018;5.810;2023-03-14T11:30:32;4.13;;;1.25;;
43883;SDS011;29544;52.018;5.810;2023-03-14T11:33:07;6.68;;;1.35;;
43883;SDS011;29544;52.018;5.810;2023-03-14T11:35:43;6.40;;;1.10;;
43883;SDS011;29544;52.018;5.810;2023-03-14T11:38:18;4.93;;;1.45;;
43883;SDS011;29544;52.018;5.810;2023-03-14T11:41:01;3.65;;;1.20;;
43883;SDS011;29544;52.018;5.810;2023-03-14T11:43:29;4.30;;;1.48;;
43883;SDS011;29544;52.018;5.810;2023-03-14T11:46:03;6.53;;;1.25;;
43883;SDS011;29544;52.018;5.810;2023-03-14T11:48:37;6.43;;;1.52;;
43883;SDS011;29544;52.018;5.810;2023-03-14T11:51:24;7.57;;;1.95;;
43883;SDS011;29544;52.018;5.810;2023-03-14T11:56:54;6.85;;;1.92;;
43883;SDS011;29544;52.018;5.810;2023-03-14T12:02:03;5.60;;;1.98;;
43883;SDS011;29544;52.018;5.810;2023-03-14T12:05:22;6.63;;;1.40;;
43883;SDS011;29544;52.018;5.810;2023-03-14T12:10:36;4.43;;;1.40;;
43883;SDS011;29544;52.018;5.810;2023-03-14T12:13:17;8.43;;;2.08;;
43883;SDS011;29544;52.018;5.810;2023-03-14T12:15:53;5.70;;;1.98;;
43883;SDS011;29544;52.018;5.810;2023-03-14T12:18:28;3.28;;;1.40;;
43883;SDS011;29544;52.018;5.810;2023-03-14T12:21:00;6.25;;;2.22;;
43883;SDS011;29544;52.018;5.810;2023-03-14T12:23:33;7.32;;;1.92;;
43883;SDS011;29544;52.018;5.810;2023-03-14T12:26:17;6.85;;;1.80;;
43883;SDS011;29544;52.018;5.810;2023-03-14T12:34:36;5.50;;;1.98;;
43883;SDS011;29544;52.018;5.810;2023-03-14T12:39:25;9.82;;;1.90;;
43883;SDS011;29544;52.018;5.810;2023-03-14T12:45:13;7.43;;;1.63;;
43883;SDS011;29544;52.018;5.810;2023-03-14T12:47:50;6.72;;;1.55;;
43883;SDS011;29544;52.018;5.810;2023-03-14T12:50:28;7.40;;;2.05;;
43883;SDS011;29544;52.018;5.810;2023-03-14T12:53:08;5.90;;;1.58;;
43883;SDS011;29544;52.018;5.810;2023-03-14T13:01:30;7.18;;;1.48;;
43883;SDS011;29544;52.018;5.810;2023-03-14T13:04:01;6.57;;;1.70;;
43883;SDS011;29544;52.018;5.810;2023-03-14T13:12:10;7.63;;;1.85;;
43883;SDS011;29544;52.018;5.810;2023-03-14T13:14:45;5.70;;;1.70;;
43883;SDS011;29544;52.018;5.810;2023-03-14T13:17:19;5.53;;;1.58;;
43883;SDS011;29544;52.018;5.810;2023-03-14T13:19:56;6.57;;;1.52;;
43883;SDS011;29544;52.018;5.810;2023-03-14T13:22:26;5.43;;;1.58;;
43883;SDS011;29544;52.018;5.810;2023-03-14T13:25:00;5.93;;;1.70;;
43883;SDS011;29544;52.018;5.810;2023-03-14T13:27:32;5.07;;;1.50;;
43883;SDS011;29544;52.018;5.810;2023-03-14T13:29:59;5.40;;;1.90;;
43883;SDS011;29544;52.018;5.810;2023-03-14T13:32:44;6.78;;;2.13;;
43883;SDS011;29544;52.018;5.810;2023-03-14T13:35:19;7.32;;;1.45;;
43883;SDS011;29544;52.018;5.810;2023-03-14T13:37:47;4.03;;;1.60;;
43883;SDS011;29544;52.018;5.810;2023-03-14T13:40:41;7.35;;;1.75;;
43883;SDS011;29544;52.018;5.810;2023-03-14T13:45:44;5.20;;;1.05;;
43883;SDS011;29544;52.018;5.810;2023-03-14T13:48:13;4.20;;;1.52;;
43883;SDS011;29544;52.018;5.810;2023-03-14T13:50:43;4.60;;;1.45;;
43883;SDS011;29544;52.018;5.810;2023-03-14T13:53:11;6.47;;;1.80;;
43883;SDS011;29544;52.018;5.810;2023-03-14T13:55:36;4.88;;;1.30;;
43883;SDS011;29544;52.018;5.810;2023-03-14T13:58:02;6.17;;;1.40;;
43883;SDS011;29544;52.018;5.810;2023-03-14T14:00:27;4.13;;;1.30;;
43883;SDS011;29544;52.018;5.810;2023-03-14T14:05:20;7.30;;;1.65;;
43883;SDS011;29544;52.018;5.810;2023-03-14T14:07:47;4.50;;;1.50;;
43883;SDS011;29544;52.018;5.810;2023-03-14T14:10:15;3.40;;;1.00;;
43883;SDS011;29544;52.018;5.810;2023-03-14T14:12:42;5.05;;;1.48;;
43883;SDS011;29544;52.018;5.810;2023-03-14T14:15:28;7.47;;;1.75;;
43883;SDS011;29544;52.018;5.810;2023-03-14T14:17:57;5.47;;;1.52;;
43883;SDS011;29544;52.018;5.810;2023-03-14T14:20:29;3.17;;;1.38;;
43883;SDS011;29544;52.018;5.810;2023-03-14T14:22:59;5.72;;;1.10;;
43883;SDS011;29544;52.018;5.810;2023-03-14T14:25:30;3.70;;;1.27;;
43883;SDS011;29544;52.018;5.810;2023-03-14T14:27:57;4.78;;;1.42;;
43883;SDS011;29544;52.018;5.810;2023-03-14T14:36:03;4.90;;;1.35;;
43883;SDS011;29544;52.018;5.810;2023-03-14T14:38:28;4.07;;;1.30;;
43883;SDS011;29544;52.018;5.810;2023-03-14T14:40:58;4.22;;;1.23;;
43883;SDS011;29544;52.018;5.810;2023-03-14T14:43:27;3.67;;;1.05;;
43883;SDS011;29544;52.018;5.810;2023-03-14T14:45:55;5.47;;;1.23;;
43883;SDS011;29544;52.018;5.810;2023-03-14T14:48:23;6.10;;;1.83;;
43883;SDS011;29544;52.018;5.810;2023-03-14T14:50:55;4.35;;;1.25;;
43883;SDS011;29544;52.018;5.810;2023-03-14T14:56:19;5.35;;;1.52;;
43883;SDS011;29544;52.018;5.810;2023-03-14T14:58:50;4.57;;;1.05;;
43883;SDS011;29544;52.018;5.810;2023-03-14T15:01:23;3.28;;;1.05;;
43883;SDS011;29544;52.018;5.810;2023-03-14T15:03:52;3.88;;;1.15;;
43883;SDS011;29544;52.018;5.810;2023-03-14T15:06:18;7.13;;;2.17;;
43883;SDS011;29544;52.018;5.810;2023-03-14T15:08:45;3.92;;;1.15;;
43883;SDS011;29544;52.018;5.810;2023-03-14T15:11:17;4.05;;;1.27;;
43883;SDS011;29544;52.018;5.810;2023-03-14T15:13:44;6.18;;;1.58;;
43883;SDS011;29544;52.018;5.810;2023-03-14T15:16:14;7.43;;;1.50;;
43883;SDS011;29544;52.018;5.810;2023-03-14T15:18:41;3.97;;;1.08;;
43883;SDS011;29544;52.018;5.810;2023-03-14T15:21:08;4.70;;;1.52;;
43883;SDS011;29544;52.018;5.810;2023-03-14T15:23:34;3.83;;;1.08;;
43883;SDS011;29544;52.018;5.810;2023-03-14T15:26:00;1.83;;;0.90;;
43883;SDS011;29544;52.018;5.810;2023-03-14T15:28:27;3.17;;;1.00;;
43883;SDS011;29544;52.018;5.810;2023-03-14T15:30:55;2.97;;;1.00;;
43883;SDS011;29544;52.018;5.810;2023-03-14T15:33:22;6.22;;;1.40;;
43883;SDS011;29544;52.018;5.810;2023-03-14T15:35:49;5.05;;;1.42;;
43883;SDS011;29544;52.018;5.810;2023-03-14T15:38:16;3.30;;;1.27;;
43883;SDS011;29544;52.018;5.810;2023-03-14T15:40:48;6.57;;;1.65;;
43883;SDS011;29544;52.018;5.810;2023-03-14T15:43:14;2.88;;;1.30;;
43883;SDS011;29544;52.018;5.810;2023-03-14T15:45:40;4.25;;;1.08;;
43883;SDS011;29544;52.018;5.810;2023-03-14T15:48:06;4.37;;;1.30;;
43883;SDS011;29544;52.018;5.810;2023-03-14T15:50:43;4.63;;;1.20;;
43883;SDS011;29544;52.018;5.810;2023-03-14T15:53:08;5.13;;;1.55;;
43883;SDS011;29544;52.018;5.810;2023-03-14T15:55:34;5.87;;;1.30;;
43883;SDS011;29544;52.018;5.810;2023-03-14T15:57:59;3.30;;;1.10;;
43883;SDS011;29544;52.018;5.810;2023-03-14T16:00:27;4.22;;;1.30;;
43883;SDS011;29544;52.018;5.810;2023-03-14T16:02:53;2.35;;;0.80;;
43883;SDS011;29544;52.018;5.810;2023-03-14T16:05:19;5.87;;;1.57;;
43883;SDS011;29544;52.018;5.810;2023-03-14T16:07:44;3.77;;;1.10;;
43883;SDS011;29544;52.018;5.810;2023-03-14T16:10:11;5.00;;;1.42;;
43883;SDS011;29544;52.018;5.810;2023-03-14T16:12:38;4.97;;;1.10;;
43883;SDS011;29544;52.018;5.810;2023-03-14T16:15:04;4.32;;;1.20;;